createdAt,value
2023-04-12T00:00:22.974Z,98581.13
2023-04-12T00:03:28.695Z,98584.34
2023-04-12T00:06:34.069Z,98576.75
2023-04-12T00:09:38.074Z,98570.47
2023-04-12T00:12:42.129Z,98571.63
2023-04-12T00:15:46.580Z,98566.31
2023-04-12T00:18:51.683Z,98567.63
2023-04-12T00:21:56.967Z,98572.31
2023-04-12T00:25:00.758Z,98573.25
2023-04-12T00:28:05.086Z,98569.81
2023-04-12T00:31:09.958Z,98573.19
2023-04-12T00:34:13.933Z,98568.72
2023-04-12T00:37:18.971Z,98568.00
2023-04-12T00:40:22.766Z,98569.34
2023-04-12T00:43:27.930Z,98569.56
2023-04-12T00:46:31.556Z,98567.41
2023-04-12T00:49:35.815Z,98570.78
2023-04-12T00:52:41.734Z,98574.34
2023-04-12T00:55:47.246Z,98565.63
2023-04-12T00:58:51.165Z,98573.03
2023-04-12T01:01:55.339Z,98572.28
2023-04-12T01:04:58.850Z,98565.63
2023-04-12T01:08:15.220Z,98566.63
2023-04-12T01:11:27.994Z,98567.84
2023-04-12T01:14:44.875Z,98567.91
2023-04-12T01:17:58.418Z,98564.50
2023-04-12T01:21:09.069Z,98568.19
2023-04-12T01:24:29.234Z,98563.09
2023-04-12T01:27:43.759Z,98567.78
2023-04-12T01:30:52.681Z,98570.19
2023-04-12T01:34:01.382Z,98574.03
2023-04-12T01:37:06.397Z,98573.25
2023-04-12T01:40:11.435Z,98578.72
2023-04-12T01:43:16.794Z,98582.41
2023-04-12T01:46:24.263Z,98587.53
2023-04-12T01:49:37.634Z,98579.53
2023-04-12T01:52:54.138Z,98581.59
2023-04-12T01:56:01.415Z,98589.22
2023-04-12T01:59:09.333Z,98588.19
2023-04-12T02:02:14.466Z,98571.28
2023-04-12T02:05:18.696Z,98576.03
2023-04-12T02:08:22.899Z,98570.84
2023-04-12T02:11:26.555Z,98575.34
2023-04-12T02:14:31.945Z,98573.75
2023-04-12T02:17:36.361Z,98568.03
2023-04-12T02:20:41.087Z,98575.06
2023-04-12T02:23:45.237Z,98565.31
2023-04-12T02:26:49.916Z,98561.31
2023-04-12T02:29:55.140Z,98567.94
2023-04-12T02:32:58.854Z,98568.22
2023-04-12T02:36:11.416Z,98569.72
2023-04-12T02:39:19.013Z,98570.56
2023-04-12T02:42:24.977Z,98569.44
2023-04-12T02:45:30.165Z,98563.34
2023-04-12T02:48:34.415Z,98562.41
2023-04-12T02:51:38.603Z,98564.09
2023-04-12T02:54:42.757Z,98549.13
2023-04-12T02:57:52.331Z,98556.06
2023-04-12T03:01:00.480Z,98551.97
2023-04-12T03:04:09.683Z,98554.31
2023-04-12T03:07:22.531Z,98555.00
2023-04-12T03:10:27.889Z,98553.69
2023-04-12T03:13:37.958Z,98550.53
2023-04-12T03:16:44.313Z,98554.09
2023-04-12T03:19:52.608Z,98546.19
2023-04-12T03:22:57.678Z,98543.94
2023-04-12T03:26:01.358Z,98542.72
2023-04-12T03:29:11.271Z,98546.19
2023-04-12T03:32:18.340Z,98541.44
2023-04-12T03:35:22.979Z,98539.28
2023-04-12T03:38:28.042Z,98538.22
2023-04-12T03:41:32.375Z,98542.94
2023-04-12T03:44:39.171Z,98543.22
2023-04-12T03:47:48.752Z,98542.34
2023-04-12T03:50:54.789Z,98536.44
2023-04-12T03:54:00.170Z,98537.13
2023-04-12T03:57:04.244Z,98535.59
2023-04-12T04:00:27.988Z,98523.47
2023-04-12T04:03:43.952Z,98534.44
2023-04-12T04:07:01.354Z,98531.41
2023-04-12T04:10:09.185Z,98526.94
2023-04-12T04:13:16.824Z,98527.16
2023-04-12T04:16:20.545Z,98524.22
2023-04-12T04:19:27.264Z,98525.56
2023-04-12T04:22:32.696Z,98532.28
2023-04-12T04:25:39.574Z,98525.88
2023-04-12T04:28:46.413Z,98521.31
2023-04-12T04:31:54.079Z,98530.50
2023-04-12T04:35:00.854Z,98533.91
2023-04-12T04:38:15.963Z,98536.22
2023-04-12T04:41:22.967Z,98535.81
2023-04-12T04:44:32.085Z,98528.16
2023-04-12T04:47:36.843Z,98528.16
2023-04-12T04:50:41.922Z,98534.81
2023-04-12T04:53:46.024Z,98546.03
2023-04-12T04:56:51.236Z,98546.13
2023-04-12T04:59:56.153Z,98546.41
2023-04-12T05:03:00.907Z,98547.59
2023-04-12T05:06:07.744Z,98553.34
2023-04-12T05:09:14.605Z,98563.75
2023-04-12T05:12:24.416Z,98563.38
2023-04-12T05:15:32.619Z,98560.47
2023-04-12T05:18:37.212Z,98557.28
2023-04-12T05:21:42.246Z,98560.97
2023-04-12T05:24:46.121Z,98559.22
2023-04-12T05:27:51.912Z,98558.69
2023-04-12T05:30:56.750Z,98563.09
2023-04-12T05:34:07.322Z,98572.00
2023-04-12T05:37:18.070Z,98567.88
2023-04-12T05:40:21.557Z,98573.59
2023-04-12T05:43:28.269Z,98565.38
2023-04-12T05:46:34.083Z,98556.16
2023-04-12T05:49:38.155Z,98560.09
2023-04-12T05:52:46.341Z,98555.72
2023-04-12T05:55:50.149Z,98562.69
2023-04-12T05:58:55.071Z,98564.38
2023-04-12T06:01:59.305Z,98562.69
2023-04-12T06:05:04.318Z,98562.59
2023-04-12T06:08:10.509Z,98566.38
2023-04-12T06:11:14.056Z,98560.97
2023-04-12T06:14:19.069Z,98552.44
2023-04-12T06:17:23.547Z,98546.28
2023-04-12T06:20:27.047Z,98548.81
2023-04-12T06:23:32.554Z,98548.59
2023-04-12T06:26:39.801Z,98540.34
2023-04-12T06:29:44.491Z,98539.47
2023-04-12T06:32:48.752Z,98531.19
2023-04-12T06:35:52.610Z,98536.59
2023-04-12T06:38:57.656Z,98531.53
2023-04-12T06:42:01.945Z,98527.53
2023-04-12T06:45:06.250Z,98529.19
2023-04-12T06:48:09.791Z,98526.53
2023-04-12T06:51:13.454Z,98517.13
2023-04-12T06:54:18.632Z,98519.41
2023-04-12T06:57:22.491Z,98515.03
2023-04-12T07:00:26.568Z,98517.84
2023-04-12T07:03:33.369Z,98518.34
2023-04-12T07:06:36.838Z,98515.81
2023-04-12T07:09:41.834Z,98516.03
2023-04-12T07:12:45.359Z,98515.91
2023-04-12T07:15:50.672Z,98523.94
2023-04-12T07:18:54.262Z,98517.53
2023-04-12T07:21:57.841Z,98518.44
2023-04-12T07:25:02.760Z,98514.63
2023-04-12T07:28:08.701Z,98517.56
2023-04-12T07:31:12.589Z,98508.34
2023-04-12T07:34:16.233Z,98507.41
2023-04-12T07:37:20.514Z,98508.25
2023-04-12T07:40:25.947Z,98499.00
2023-04-12T07:43:29.741Z,98495.97
2023-04-12T07:46:33.226Z,98494.13
2023-04-12T07:49:36.749Z,98497.66
2023-04-12T07:52:40.468Z,98487.41
2023-04-12T07:55:45.552Z,98487.00
2023-04-12T07:58:49.403Z,98485.19
2023-04-12T08:01:53.124Z,98495.06
2023-04-12T08:04:56.618Z,98492.63
2023-04-12T08:08:00.382Z,98488.69
2023-04-12T08:11:06.778Z,98489.31
2023-04-12T08:14:10.693Z,98485.09
2023-04-12T08:17:14.059Z,98488.44
2023-04-12T08:20:17.805Z,98490.81
2023-04-12T08:23:21.656Z,98489.63
2023-04-12T08:26:29.944Z,98495.69
2023-04-12T08:29:34.950Z,98497.38
2023-04-12T08:32:39.219Z,98491.72
2023-04-12T08:35:51.331Z,98482.16
2023-04-12T08:38:56.186Z,98482.69
2023-04-12T08:42:02.276Z,98486.34
2023-04-12T08:45:07.404Z,98486.81
2023-04-12T08:48:11.347Z,98493.22
2023-04-12T08:51:16.002Z,98485.84
2023-04-12T08:54:19.635Z,98486.59
2023-04-12T08:57:24.667Z,98477.59
2023-04-12T09:00:28.903Z,98467.88
2023-04-12T09:03:33.596Z,98467.88
2023-04-12T09:06:37.614Z,98469.03
2023-04-12T09:09:45.551Z,98461.22
2023-04-12T09:12:52.307Z,98464.78
2023-04-12T09:15:56.430Z,98464.22
2023-04-12T09:19:02.639Z,98455.44
2023-04-12T09:22:06.373Z,98456.81
2023-04-12T09:25:10.166Z,98452.25
2023-04-12T09:28:23.336Z,98452.81
2023-04-12T09:31:26.943Z,98444.22
2023-04-12T09:34:30.898Z,98437.22
2023-04-12T09:37:34.416Z,98429.69
2023-04-12T09:40:39.083Z,98430.84
2023-04-12T09:43:44.214Z,98418.44
2023-04-12T09:46:53.269Z,98412.75
2023-04-12T09:49:57.001Z,98413.56
2023-04-12T09:53:01.716Z,98417.25
2023-04-12T09:56:06.146Z,98409.34
2023-04-12T09:59:12.576Z,98398.53
2023-04-12T10:02:18.114Z,98400.78
2023-04-12T10:05:26.945Z,98391.25
2023-04-12T10:08:32.942Z,98389.69
2023-04-12T10:11:36.774Z,98392.25
2023-04-12T10:14:43.642Z,98394.06
2023-04-12T10:17:49.153Z,98388.41
2023-04-12T10:20:52.920Z,98382.97
2023-04-12T10:23:57.742Z,98381.97
2023-04-12T10:27:03.511Z,98376.69
2023-04-12T10:30:24.922Z,98371.03
2023-04-12T10:33:29.521Z,98367.66
2023-04-12T10:36:55.137Z,98368.38
2023-04-12T10:39:58.655Z,98367.13
2023-04-12T10:43:27.973Z,98364.47
2023-04-12T10:46:51.777Z,98370.34
2023-04-12T10:50:25.369Z,98364.47
2023-04-12T10:53:33.426Z,98366.75
2023-04-12T10:56:43.375Z,98360.31
2023-04-12T10:59:59.728Z,98357.75
2023-04-12T11:03:12.941Z,98356.16
2023-04-12T11:06:27.204Z,98344.84
2023-04-12T11:10:15.247Z,98341.94
2023-04-12T11:13:19.082Z,98341.88
2023-04-12T11:16:22.791Z,98343.78
2023-04-12T11:19:27.826Z,98335.56
2023-04-12T11:22:33.005Z,98343.06
2023-04-12T11:25:39.089Z,98341.81
2023-04-12T11:28:43.188Z,98332.41
2023-04-12T11:31:46.781Z,98327.81
2023-04-12T11:34:52.099Z,98321.31
2023-04-12T11:37:57.621Z,98314.53
2023-04-12T11:41:02.716Z,98310.66
2023-04-12T11:44:07.187Z,98313.66
2023-04-12T11:47:23.551Z,98312.94
2023-04-12T11:50:42.169Z,98308.13
2023-04-12T11:53:53.522Z,98298.25
2023-04-12T11:56:58.699Z,98297.50
2023-04-12T12:00:07.220Z,98299.00
2023-04-12T12:03:19.323Z,98296.44
2023-04-12T12:06:26.478Z,98287.75
2023-04-12T12:09:31.364Z,98280.09
2023-04-12T12:12:35.886Z,98277.91
2023-04-12T12:15:40.328Z,98275.41
2023-04-12T12:18:45.743Z,98268.59
2023-04-12T12:21:50.781Z,98262.22
2023-04-12T12:24:57.894Z,98262.50
2023-04-12T12:28:05.517Z,98251.31
2023-04-12T12:31:13.927Z,98259.72
2023-04-12T12:34:19.875Z,98247.06
2023-04-12T12:37:27.079Z,98245.53
2023-04-12T12:40:33.019Z,98249.34
2023-04-12T12:43:36.483Z,98246.22
2023-04-12T12:46:53.630Z,98238.94
2023-04-12T12:50:00.589Z,98237.28
2023-04-12T12:53:07.128Z,98224.19
2023-04-12T12:56:11.510Z,98227.88
2023-04-12T12:59:15.045Z,98228.50
2023-04-12T13:02:20.085Z,98219.34
2023-04-12T13:05:23.942Z,98219.41
2023-04-12T13:08:29.269Z,98213.03
2023-04-12T13:11:33.013Z,98205.19
2023-04-12T13:14:36.736Z,98200.81
2023-04-12T13:17:40.568Z,98205.00
2023-04-12T13:20:44.385Z,98198.31
2023-04-12T13:23:54.796Z,98197.63
2023-04-12T13:26:59.395Z,98187.63
2023-04-12T13:30:06.013Z,98184.31
2023-04-12T13:33:14.892Z,98182.88
2023-04-12T13:36:20.790Z,98180.25
2023-04-12T13:39:26.100Z,98176.38
2023-04-12T13:42:30.378Z,98177.56
2023-04-12T13:45:34.893Z,98162.97
2023-04-12T13:48:38.439Z,98156.03
2023-04-12T13:51:43.531Z,98161.22
2023-04-12T13:54:48.962Z,98156.03
2023-04-12T13:57:52.459Z,98156.28
2023-04-12T14:00:56.900Z,98151.03
2023-04-12T14:04:00.638Z,98146.41
2023-04-12T14:07:04.126Z,98149.34
2023-04-12T14:10:11.662Z,98144.50
2023-04-12T14:13:15.599Z,98144.75
2023-04-12T14:16:19.242Z,98144.41
2023-04-12T14:19:22.739Z,98134.53
2023-04-12T14:22:26.513Z,98142.72
2023-04-12T14:25:31.473Z,98137.41
2023-04-12T14:28:35.623Z,98134.56
2023-04-12T14:31:39.771Z,98130.88
2023-04-12T14:34:44.541Z,98128.59
2023-04-12T14:37:48.259Z,98130.97
2023-04-12T14:40:54.581Z,98128.16
2023-04-12T14:43:58.387Z,98129.84
2023-04-12T14:47:03.501Z,98115.59
2023-04-12T14:50:08.589Z,98121.56
2023-04-12T14:53:14.128Z,98111.44
2023-04-12T14:56:29.756Z,98110.19
2023-04-12T14:59:34.739Z,98108.00
2023-04-12T15:02:41.371Z,98111.44
2023-04-12T15:05:45.932Z,98116.53
2023-04-12T15:08:49.778Z,98116.59
2023-04-12T15:12:01.042Z,98112.13
2023-04-12T15:15:06.420Z,98105.53
2023-04-12T15:18:10.620Z,98105.47
2023-04-12T15:21:14.941Z,98103.94
2023-04-12T15:24:18.447Z,98100.88
2023-04-12T15:27:23.528Z,98100.25
2023-04-12T15:30:26.880Z,98099.06
2023-04-12T15:33:34.430Z,98097.28
2023-04-12T15:36:38.456Z,98099.88
2023-04-12T15:39:42.533Z,98096.81
2023-04-12T15:42:47.672Z,98101.91
2023-04-12T15:45:53.566Z,98094.47
2023-04-12T15:48:58.053Z,98092.88
2023-04-12T15:52:01.920Z,98092.38
2023-04-12T15:55:07.647Z,98083.06
2023-04-12T15:58:13.795Z,98093.00
2023-04-12T16:01:17.613Z,98087.28
2023-04-12T16:04:21.178Z,98075.19
2023-04-12T16:07:25.762Z,98073.47
2023-04-12T16:10:30.455Z,98066.69
2023-04-12T16:13:35.599Z,98064.78
2023-04-12T16:16:40.645Z,98068.38
2023-04-12T16:19:44.197Z,98068.38
2023-04-12T16:22:48.378Z,98073.88
2023-04-12T16:25:51.758Z,98067.66
2023-04-12T16:28:59.360Z,98064.38
2023-04-12T16:32:03.400Z,98059.66
2023-04-12T16:35:08.230Z,98060.38
2023-04-12T16:38:12.261Z,98053.88
2023-04-12T16:41:17.409Z,98048.72
2023-04-12T16:44:22.234Z,98049.47
2023-04-12T16:47:26.164Z,98049.03
2023-04-12T16:50:29.665Z,98050.03
2023-04-12T16:53:33.098Z,98046.66
2023-04-12T16:56:38.719Z,98047.13
2023-04-12T16:59:43.686Z,98042.38
2023-04-12T17:02:48.674Z,98045.34
2023-04-12T17:05:52.828Z,98041.72
2023-04-12T17:08:57.572Z,98042.56
2023-04-12T17:12:02.940Z,98041.84
2023-04-12T17:15:08.827Z,98045.91
2023-04-12T17:18:12.479Z,98047.81
2023-04-12T17:21:17.158Z,98047.53
2023-04-12T17:24:20.808Z,98047.06
2023-04-12T17:27:24.175Z,98052.22
2023-04-12T17:30:29.650Z,98042.50
2023-04-12T17:33:33.108Z,98041.91
2023-04-12T17:36:36.571Z,98049.44
2023-04-12T17:39:39.955Z,98039.31
2023-04-12T17:42:44.648Z,98038.47
2023-04-12T17:45:49.558Z,98043.88
2023-04-12T17:48:52.983Z,98048.53
2023-04-12T17:51:56.329Z,98050.78
2023-04-12T17:54:59.724Z,98045.00
2023-04-12T17:58:03.520Z,98042.00
2023-04-12T18:01:08.374Z,98034.81
2023-04-12T18:04:12.413Z,98032.72
2023-04-12T18:07:15.883Z,98033.72
2023-04-12T18:10:21.796Z,98024.66
2023-04-12T18:13:25.326Z,98028.06
2023-04-12T18:16:30.385Z,98031.53
2023-04-12T18:19:33.839Z,98034.78
2023-04-12T18:22:37.383Z,98036.00
2023-04-12T18:25:40.790Z,98039.75
2023-04-12T18:28:44.273Z,98041.44
2023-04-12T18:31:49.058Z,98049.34
2023-04-12T18:34:52.813Z,98041.94
2023-04-12T18:37:56.468Z,98038.34
2023-04-12T18:41:00.361Z,98039.09
2023-04-12T18:44:03.875Z,98032.66
2023-04-12T18:47:09.002Z,98045.16
2023-04-12T18:50:12.756Z,98042.88
2023-04-12T18:53:16.347Z,98040.06
2023-04-12T18:56:23.824Z,98040.63
2023-04-12T18:59:27.522Z,98042.88
2023-04-12T19:02:34.386Z,98046.63
2023-04-12T19:05:38.056Z,98048.69
2023-04-12T19:08:43.310Z,98045.34
2023-04-12T19:11:47.278Z,98056.03
2023-04-12T19:14:51.174Z,98053.66
2023-04-12T19:17:56.122Z,98049.97
2023-04-12T19:20:59.472Z,98046.38
2023-04-12T19:24:03.896Z,98042.34
2023-04-12T19:27:07.857Z,98040.78
2023-04-12T19:30:13.101Z,98035.16
2023-04-12T19:33:17.940Z,98035.94
2023-04-12T19:36:23.225Z,98031.25
2023-04-12T19:39:27.114Z,98033.66
2023-04-12T19:42:30.814Z,98022.25
2023-04-12T19:45:34.241Z,98019.97
2023-04-12T19:48:39.176Z,98027.09
2023-04-12T19:51:43.543Z,98022.66
2023-04-12T19:54:46.923Z,98022.19
2023-04-12T19:57:51.396Z,98026.44
2023-04-12T20:00:55.047Z,98023.03
2023-04-12T20:03:59.825Z,98024.75
2023-04-12T20:07:03.205Z,98016.84
2023-04-12T20:10:10.367Z,98020.00
2023-04-12T20:13:15.436Z,98011.84
2023-04-12T20:16:19.641Z,98014.41
2023-04-12T20:19:24.396Z,98018.22
2023-04-12T20:22:27.873Z,98010.59
2023-04-12T20:25:35.604Z,98009.75
2023-04-12T20:28:39.088Z,98010.06
2023-04-12T20:31:42.428Z,97997.28
2023-04-12T20:34:49.097Z,97998.88
2023-04-12T20:37:53.036Z,97999.38
2023-04-12T20:40:57.511Z,98002.47
2023-04-12T20:44:00.969Z,97997.00
2023-04-12T20:47:04.449Z,97992.56
2023-04-12T20:50:10.394Z,97997.19
2023-04-12T20:53:15.830Z,98004.91
2023-04-12T20:56:19.989Z,97995.91
2023-04-12T20:59:24.036Z,97993.69
2023-04-12T21:02:27.770Z,97992.53
2023-04-12T21:05:33.903Z,97991.03
2023-04-12T21:08:38.285Z,97988.53
2023-04-12T21:11:42.104Z,97987.78
2023-04-12T21:14:50.367Z,97986.59
2023-04-12T21:17:54.310Z,97978.13
2023-04-12T21:21:02.257Z,97971.78
2023-04-12T21:24:07.562Z,97975.59
2023-04-12T21:27:11.665Z,97980.59
2023-04-12T21:30:15.819Z,97979.09
2023-04-12T21:33:24.659Z,97982.34
2023-04-12T21:36:30.451Z,97972.41
2023-04-12T21:39:33.915Z,97965.91
2023-04-12T21:42:38.538Z,97985.72
2023-04-12T21:45:42.012Z,97973.38
2023-04-12T21:48:45.475Z,97970.69
2023-04-12T21:51:52.338Z,97965.97
2023-04-12T21:54:55.953Z,97963.31
2023-04-12T21:57:59.691Z,97965.94
2023-04-12T22:01:04.041Z,97963.84
2023-04-12T22:04:07.906Z,97961.72
2023-04-12T22:07:16.949Z,97949.16
2023-04-12T22:10:20.735Z,97955.50
2023-04-12T22:13:24.830Z,97952.69
2023-04-12T22:16:28.410Z,97944.38
2023-04-12T22:19:31.859Z,97936.88
2023-04-12T22:22:37.418Z,97945.84
2023-04-12T22:25:40.832Z,97925.28
2023-04-12T22:28:44.509Z,97934.06
2023-04-12T22:31:50.188Z,97922.88
2023-04-12T22:35:05.106Z,97929.63
2023-04-12T22:38:14.823Z,97929.19
2023-04-12T22:41:18.872Z,97924.53
2023-04-12T22:44:22.908Z,97918.75
2023-04-12T22:47:26.608Z,97924.09
2023-04-12T22:50:30.031Z,97919.06
2023-04-12T22:53:34.795Z,97918.63
2023-04-12T22:56:45.224Z,97918.00
2023-04-12T22:59:48.601Z,97912.19
2023-04-12T23:02:53.848Z,97905.66
2023-04-12T23:05:57.908Z,97911.66
2023-04-12T23:09:05.863Z,97906.97
2023-04-12T23:12:09.290Z,97895.94
2023-04-12T23:15:13.016Z,97890.13
2023-04-12T23:18:16.260Z,97897.09
2023-04-12T23:21:19.817Z,97892.78
2023-04-12T23:24:25.149Z,97890.25
2023-04-12T23:27:29.179Z,97892.88
2023-04-12T23:30:32.517Z,97891.00
2023-04-12T23:33:35.991Z,97884.66
2023-04-12T23:36:39.374Z,97879.16
2023-04-12T23:39:44.307Z,97871.56
2023-04-12T23:42:48.777Z,97869.06
2023-04-12T23:45:53.341Z,97873.16
2023-04-12T23:48:57.132Z,97870.72
2023-04-12T23:52:00.725Z,97863.22
2023-04-12T23:55:06.054Z,97857.97
2023-04-12T23:58:09.443Z,97858.59
